createdAt,value
2023-03-22T00:03:52.980Z,527.00
2023-03-22T00:07:52.865Z,527.00
2023-03-22T00:11:52.945Z,527.00
2023-03-22T00:15:53.067Z,533.00
2023-03-22T00:19:53.014Z,533.00
2023-03-22T00:23:53.066Z,534.00
2023-03-22T00:27:53.142Z,531.00
2023-03-22T00:31:53.268Z,533.00
2023-03-22T00:35:53.293Z,530.00
2023-03-22T00:39:53.341Z,527.00
2023-03-22T00:43:53.438Z,528.00
2023-03-22T00:47:53.544Z,530.00
2023-03-22T00:51:53.574Z,533.00
2023-03-22T00:55:53.640Z,532.00
2023-03-22T00:59:53.694Z,533.00
2023-03-22T01:03:53.824Z,531.00
2023-03-22T01:07:53.827Z,531.00
2023-03-22T01:11:53.872Z,528.00
2023-03-22T01:15:53.924Z,532.00
2023-03-22T01:19:53.965Z,531.00
2023-03-22T01:23:54.101Z,534.00
2023-03-22T01:27:54.197Z,526.00
2023-03-22T01:31:54.291Z,534.00
2023-03-22T01:35:54.439Z,535.00
2023-03-22T01:39:54.469Z,534.00
2023-03-22T01:43:54.532Z,534.00
2023-03-22T01:47:54.623Z,530.00
2023-03-22T01:51:54.718Z,525.00
2023-03-22T01:55:54.816Z,525.00
2023-03-22T01:59:54.960Z,526.00
2023-03-22T02:03:55.033Z,527.00
2023-03-22T02:07:55.113Z,528.00
2023-03-22T02:11:55.272Z,531.00
2023-03-22T02:15:55.440Z,528.00
2023-03-22T02:19:55.497Z,527.00
2023-03-22T02:23:55.630Z,523.00
2023-03-22T02:27:55.715Z,519.00
2023-03-22T02:31:55.879Z,522.00
2023-03-22T02:35:56.092Z,525.00
2023-03-22T02:39:56.115Z,523.00
2023-03-22T02:43:56.259Z,523.00
2023-03-22T02:47:57.216Z,521.00
2023-03-22T02:51:56.513Z,517.00
2023-03-22T02:55:56.673Z,516.00
2023-03-22T02:59:56.847Z,525.00
2023-03-22T03:03:57.028Z,518.00
2023-03-22T03:07:57.214Z,519.00
2023-03-22T03:11:57.326Z,519.00
2023-03-22T03:15:57.570Z,518.00
2023-03-22T03:19:57.680Z,518.00
2023-03-22T03:23:57.782Z,515.00
2023-03-22T03:27:57.968Z,516.00
2023-03-22T03:31:58.166Z,517.00
2023-03-22T03:35:58.349Z,519.00
2023-03-22T03:39:58.454Z,521.00
2023-03-22T03:43:58.652Z,523.00
2023-03-22T03:47:58.956Z,522.00
2023-03-22T03:51:58.989Z,521.00
2023-03-22T03:55:59.156Z,518.00
2023-03-22T03:59:59.344Z,512.00
2023-03-22T04:03:59.522Z,515.00
2023-03-22T04:07:59.727Z,520.00
2023-03-22T04:11:59.886Z,513.00
2023-03-22T04:16:00.095Z,516.00
2023-03-22T04:20:00.257Z,521.00
2023-03-22T04:24:00.480Z,520.00
2023-03-22T04:28:00.746Z,522.00
2023-03-22T04:32:00.597Z,527.00
2023-03-22T04:36:02.496Z,524.00
2023-03-22T04:40:00.490Z,522.00
2023-03-22T04:44:00.473Z,525.00
2023-03-22T04:48:00.461Z,524.00
2023-03-22T04:52:00.358Z,521.00
2023-03-22T04:56:00.341Z,522.00
2023-03-22T05:00:00.313Z,521.00
2023-03-22T05:04:00.296Z,518.00
2023-03-22T05:08:00.194Z,523.00
2023-03-22T05:12:00.200Z,524.00
2023-03-22T05:16:00.245Z,529.00
2023-03-22T05:20:00.266Z,528.00
2023-03-22T05:24:00.293Z,526.00
2023-03-22T05:28:00.130Z,523.00
2023-03-22T05:32:00.121Z,529.00
2023-03-22T05:36:00.015Z,532.00
2023-03-22T05:39:59.930Z,534.00
2023-03-22T05:43:59.855Z,533.00
2023-03-22T05:47:59.870Z,537.00
2023-03-22T05:51:59.755Z,533.00
2023-03-22T05:55:59.670Z,529.00
2023-03-22T05:59:59.647Z,529.00
2023-03-22T06:03:59.662Z,529.00
2023-03-22T06:07:59.682Z,529.00
2023-03-22T06:11:59.686Z,525.00
2023-03-22T06:15:59.678Z,527.00
2023-03-22T06:19:59.720Z,528.00
2023-03-22T06:23:59.679Z,532.00
2023-03-22T06:27:59.622Z,544.00
2023-03-22T06:31:59.584Z,540.00
2023-03-22T06:35:59.571Z,543.00
2023-03-22T06:39:59.754Z,600.00
2023-03-22T06:43:59.753Z,635.00
2023-03-22T06:47:59.778Z,728.00
2023-03-22T06:51:59.670Z,764.00
2023-03-22T06:55:59.756Z,725.00
2023-03-22T06:59:59.760Z,697.00
2023-03-22T07:03:59.667Z,703.00
2023-03-22T07:07:59.601Z,696.00
2023-03-22T07:11:59.777Z,682.00
2023-03-22T07:15:59.909Z,671.00
2023-03-22T07:19:59.448Z,664.00
2023-03-22T07:23:59.789Z,645.00
2023-03-22T07:27:59.503Z,628.00
2023-03-22T07:31:59.774Z,622.00
2023-03-22T07:35:59.513Z,615.00
2023-03-22T07:39:59.485Z,608.00
2023-03-22T07:44:11.444Z,606.00
2023-03-22T07:48:00.876Z,726.00
2023-03-22T07:51:59.783Z,819.00
2023-03-22T07:55:59.227Z,788.00
2023-03-22T07:59:59.321Z,739.00
2023-03-22T08:03:59.162Z,742.00
2023-03-22T08:07:59.050Z,734.00
2023-03-22T08:11:58.959Z,739.00
2023-03-22T08:15:59.285Z,718.00
2023-03-22T08:19:58.860Z,702.00
2023-03-22T08:23:58.765Z,698.00
2023-03-22T08:27:58.818Z,676.00
2023-03-22T08:31:58.861Z,665.00
2023-03-22T08:35:58.840Z,654.00
2023-03-22T08:39:58.417Z,647.00
2023-03-22T08:43:58.787Z,726.00
2023-03-22T08:47:58.379Z,771.00
2023-03-22T08:51:58.347Z,730.00
2023-03-22T08:55:58.332Z,709.00
2023-03-22T08:59:58.102Z,683.00
2023-03-22T09:03:58.339Z,661.00
2023-03-22T09:08:05.853Z,635.00
2023-03-22T09:11:58.975Z,616.00
2023-03-22T09:15:57.939Z,606.00
2023-03-22T09:20:11.397Z,601.00
2023-03-22T09:23:58.889Z,597.00
2023-03-22T09:27:57.819Z,597.00
2023-03-22T09:31:57.643Z,595.00
2023-03-22T09:35:57.557Z,602.00
2023-03-22T09:39:57.830Z,699.00
2023-03-22T09:43:57.819Z,691.00
2023-03-22T09:47:57.351Z,775.00
2023-03-22T09:51:57.295Z,896.00
2023-03-22T09:55:57.384Z,877.00
2023-03-22T09:59:57.075Z,903.00
2023-03-22T10:03:57.014Z,893.00
2023-03-22T10:07:57.317Z,870.00
2023-03-22T10:11:56.804Z,865.00
2023-03-22T10:15:56.796Z,883.00
2023-03-22T10:19:57.342Z,881.00
2023-03-22T10:23:57.053Z,908.00
2023-03-22T10:27:57.994Z,888.00
2023-03-22T10:31:57.309Z,855.00
2023-03-22T10:35:57.872Z,874.00
2023-03-22T10:39:57.842Z,863.00
2023-03-22T10:43:57.512Z,994.00
2023-03-22T10:47:57.887Z,1042.00
2023-03-22T10:51:57.740Z,1044.00
2023-03-22T10:55:59.438Z,1001.00
2023-03-22T10:59:57.841Z,993.00
2023-03-22T11:03:58.089Z,986.00
2023-03-22T11:07:57.997Z,955.00
2023-03-22T11:11:58.057Z,964.00
2023-03-22T11:15:58.170Z,971.00
2023-03-22T11:19:58.225Z,964.00
2023-03-22T11:23:58.296Z,951.00
2023-03-22T11:27:58.298Z,930.00
2023-03-22T11:31:58.545Z,944.00
2023-03-22T11:35:58.477Z,1021.00
2023-03-22T11:39:58.922Z,1044.00
2023-03-22T11:43:58.887Z,1065.00
2023-03-22T11:47:58.489Z,1053.00
2023-03-22T11:51:58.309Z,1023.00
2023-03-22T11:55:58.220Z,1020.00
2023-03-22T11:59:58.167Z,1014.00
2023-03-22T12:03:58.225Z,984.00
2023-03-22T12:07:58.049Z,966.00
2023-03-22T12:11:57.919Z,949.00
2023-03-22T12:15:57.866Z,961.00
2023-03-22T12:19:57.752Z,964.00
2023-03-22T12:23:57.617Z,918.00
2023-03-22T12:27:58.358Z,933.00
2023-03-22T12:31:57.949Z,1031.00
2023-03-22T12:35:57.465Z,994.00
2023-03-22T12:39:57.423Z,1046.00
2023-03-22T12:43:57.365Z,1087.00
2023-03-22T12:47:57.528Z,1073.00
2023-03-22T12:51:57.552Z,1033.00
2023-03-22T12:55:57.541Z,996.00
2023-03-22T12:59:57.604Z,974.00
2023-03-22T13:03:57.745Z,986.00
2023-03-22T13:07:57.789Z,960.00
2023-03-22T13:11:57.791Z,951.00
2023-03-22T13:15:57.801Z,947.00
2023-03-22T13:19:57.821Z,899.00
2023-03-22T13:23:57.909Z,898.00
2023-03-22T13:28:06.887Z,904.00
2023-03-22T13:31:57.851Z,860.00
2023-03-22T13:35:57.802Z,833.00
2023-03-22T13:39:57.635Z,820.00
2023-03-22T13:43:57.502Z,812.00
2023-03-22T13:47:57.552Z,808.00
2023-03-22T13:51:57.362Z,787.00
2023-03-22T13:55:57.278Z,760.00
2023-03-22T14:00:09.429Z,757.00
2023-03-22T14:03:58.194Z,747.00
2023-03-22T14:07:57.066Z,743.00
2023-03-22T14:11:57.271Z,735.00
2023-03-22T14:15:56.952Z,719.00
2023-03-22T14:19:56.750Z,714.00
2023-03-22T14:48:57.414Z,653.00
2023-03-22T14:52:57.383Z,639.00
2023-03-22T14:56:57.437Z,625.00
2023-03-22T15:00:57.462Z,623.00
2023-03-22T15:04:57.506Z,634.00
2023-03-22T15:08:57.469Z,635.00
2023-03-22T15:12:57.515Z,713.00
2023-03-22T15:16:57.498Z,711.00
2023-03-22T15:20:57.537Z,724.00
2023-03-22T15:24:57.569Z,715.00
2023-03-22T15:28:57.658Z,703.00
2023-03-22T15:32:57.812Z,696.00
2023-03-22T15:36:57.959Z,683.00
2023-03-22T15:40:58.120Z,669.00
2023-03-22T15:44:58.193Z,662.00
2023-03-22T15:48:58.254Z,654.00
2023-03-22T15:52:58.300Z,657.00
2023-03-22T15:56:58.365Z,649.00
2023-03-22T16:00:58.436Z,650.00
2023-03-22T16:04:58.481Z,653.00
2023-03-22T16:08:58.584Z,655.00
2023-03-22T16:12:58.654Z,651.00
2023-03-22T16:16:58.775Z,650.00
2023-03-22T16:20:58.787Z,654.00
2023-03-22T16:24:58.837Z,655.00
2023-03-22T16:28:58.902Z,653.00
2023-03-22T16:32:58.990Z,644.00
2023-03-22T16:36:59.139Z,636.00
2023-03-22T16:40:59.239Z,632.00
2023-03-22T16:44:59.303Z,630.00
2023-03-22T16:48:59.411Z,628.00
2023-03-22T16:52:59.494Z,625.00
2023-03-22T16:56:59.608Z,616.00
2023-03-22T17:00:59.721Z,616.00
2023-03-22T17:04:59.826Z,615.00
2023-03-22T17:08:59.886Z,614.00
2023-03-22T17:12:59.978Z,605.00
2023-03-22T17:17:00.107Z,600.00
2023-03-22T17:21:00.161Z,596.00
2023-03-22T17:25:00.326Z,591.00
2023-03-22T17:29:00.416Z,586.00
2023-03-22T17:33:01.851Z,573.00
2023-03-22T17:37:00.708Z,567.00
2023-03-22T17:41:02.514Z,569.00
2023-03-22T17:45:00.944Z,562.00
2023-03-22T17:49:01.041Z,555.00
2023-03-22T17:53:01.158Z,553.00
2023-03-22T17:57:27.880Z,552.00
2023-03-22T18:01:01.315Z,543.00
2023-03-22T18:05:01.308Z,546.00
2023-03-22T18:09:01.367Z,553.00
2023-03-22T18:13:01.503Z,555.00
2023-03-22T18:17:01.772Z,553.00
2023-03-22T18:21:02.098Z,559.00
2023-03-22T18:25:02.155Z,561.00
2023-03-22T18:29:02.362Z,568.00
2023-03-22T18:33:06.079Z,568.00
2023-03-22T18:37:02.605Z,562.00
2023-03-22T18:41:31.581Z,556.00
2023-03-22T18:45:04.077Z,552.00
2023-03-22T18:49:02.605Z,553.00
2023-03-22T18:53:16.221Z,553.00
2023-03-22T18:57:03.660Z,555.00
2023-03-22T19:01:02.781Z,554.00
2023-03-22T19:05:02.766Z,551.00
2023-03-22T19:09:02.995Z,554.00
2023-03-22T19:13:03.190Z,553.00
2023-03-22T19:17:03.386Z,546.00
2023-03-22T19:21:11.783Z,547.00
2023-03-22T19:25:04.652Z,544.00
2023-03-22T19:29:03.677Z,544.00
2023-03-22T19:33:27.567Z,544.00
2023-03-22T19:37:04.736Z,541.00
2023-03-22T19:41:39.370Z,540.00
2023-03-22T19:45:04.778Z,536.00
2023-03-22T19:49:03.774Z,541.00
2023-03-22T19:53:26.067Z,540.00
2023-03-22T19:57:04.889Z,531.00
2023-03-22T20:01:04.491Z,532.00
2023-03-22T20:05:11.396Z,536.00
2023-03-22T20:09:05.124Z,531.00
2023-03-22T20:13:04.145Z,527.00
2023-03-22T20:17:06.880Z,531.00
2023-03-22T20:21:04.340Z,530.00
2023-03-22T20:25:04.362Z,533.00
2023-03-22T20:29:04.388Z,532.00
2023-03-22T20:33:04.410Z,532.00
2023-03-22T20:37:04.466Z,535.00
2023-03-22T20:41:04.637Z,532.00
2023-03-22T20:45:04.905Z,531.00
2023-03-22T20:49:05.172Z,532.00
2023-03-22T20:53:05.441Z,531.00
2023-03-22T20:57:05.737Z,526.00
2023-03-22T21:01:06.017Z,529.00
2023-03-22T21:05:06.232Z,529.00
2023-03-22T21:09:06.451Z,526.00
2023-03-22T21:13:06.694Z,525.00
2023-03-22T21:17:06.981Z,524.00
2023-03-22T21:21:07.213Z,524.00
2023-03-22T21:25:07.467Z,527.00
2023-03-22T21:29:07.771Z,529.00
2023-03-22T21:33:08.061Z,529.00
2023-03-22T21:37:08.284Z,528.00
2023-03-22T21:41:08.296Z,531.00
2023-03-22T21:45:08.347Z,532.00
2023-03-22T21:49:08.334Z,533.00
2023-03-22T21:53:08.331Z,529.00
2023-03-22T21:57:08.368Z,534.00
2023-03-22T22:01:08.405Z,540.00
2023-03-22T22:05:08.378Z,543.00
2023-03-22T22:09:08.374Z,540.00
2023-03-22T22:13:08.413Z,538.00
2023-03-22T22:17:08.414Z,537.00
2023-03-22T22:21:08.424Z,546.00
2023-03-22T22:25:08.516Z,543.00
2023-03-22T22:29:08.429Z,546.00
2023-03-22T22:33:08.467Z,541.00
2023-03-22T22:37:08.459Z,539.00
2023-03-22T22:41:08.445Z,539.00
2023-03-22T22:45:08.490Z,542.00
2023-03-22T22:49:08.472Z,541.00
2023-03-22T22:53:08.495Z,538.00
2023-03-22T22:57:08.736Z,537.00
2023-03-22T23:01:08.568Z,536.00
2023-03-22T23:05:08.622Z,537.00
2023-03-22T23:09:08.609Z,536.00
2023-03-22T23:13:08.643Z,530.00
2023-03-22T23:17:08.672Z,529.00
2023-03-22T23:21:08.609Z,526.00
2023-03-22T23:25:08.655Z,525.00
2023-03-22T23:29:08.656Z,519.00
2023-03-22T23:33:08.660Z,526.00
2023-03-22T23:37:08.829Z,533.00
2023-03-22T23:41:08.813Z,537.00
2023-03-22T23:45:08.864Z,538.00
2023-03-22T23:49:08.872Z,538.00
2023-03-22T23:53:08.890Z,536.00
2023-03-22T23:57:08.888Z,534.00
